createdAt,value
2023-03-08T00:00:38.501Z,37.63
2023-03-08T00:03:05.889Z,31.48
2023-03-08T00:05:33.290Z,29.35
2023-03-08T00:08:00.680Z,31.67
2023-03-08T00:10:27.918Z,26.05
2023-03-08T00:12:55.323Z,30.00
2023-03-08T00:15:22.840Z,29.88
2023-03-08T00:17:50.142Z,27.92
2023-03-08T00:20:17.482Z,28.55
2023-03-08T00:22:45.063Z,24.50
2023-03-08T00:25:12.708Z,32.58
2023-03-08T00:27:40.107Z,28.00
2023-03-08T00:30:08.008Z,32.30
2023-03-08T00:32:35.337Z,33.35
2023-03-08T00:35:03.018Z,34.58
2023-03-08T00:37:31.044Z,30.48
2023-03-08T00:39:58.493Z,29.20
2023-03-08T00:42:26.771Z,27.88
2023-03-08T00:44:54.156Z,29.50
2023-03-08T00:47:21.398Z,28.15
2023-03-08T00:49:48.773Z,28.33
2023-03-08T00:52:15.995Z,21.70
2023-03-08T00:54:44.776Z,25.75
2023-03-08T00:57:12.044Z,25.05
2023-03-08T00:59:39.522Z,24.55
2023-03-08T01:02:06.978Z,29.85
2023-03-08T01:04:34.548Z,33.80
2023-03-08T01:07:01.937Z,23.50
2023-03-08T01:09:29.472Z,23.20
2023-03-08T01:11:56.903Z,32.28
2023-03-08T01:14:24.127Z,17.50
2023-03-08T01:16:53.210Z,31.88
2023-03-08T01:19:22.041Z,33.28
2023-03-08T01:21:49.509Z,23.55
2023-03-08T01:24:17.141Z,25.08
2023-03-08T01:26:44.690Z,21.13
2023-03-08T01:29:11.898Z,26.58
2023-03-08T01:31:39.334Z,20.50
2023-03-08T01:34:06.553Z,26.23
2023-03-08T01:36:33.849Z,19.20
2023-03-08T01:39:01.759Z,24.95
2023-03-08T01:41:31.910Z,31.75
2023-03-08T01:43:59.559Z,22.55
2023-03-08T01:46:27.317Z,26.73
2023-03-08T01:49:33.538Z,26.48
2023-03-08T01:52:23.636Z,20.88
2023-03-08T01:54:57.261Z,27.08
2023-03-08T01:57:30.242Z,26.33
2023-03-08T02:00:04.009Z,21.27
2023-03-08T02:02:52.098Z,26.17
2023-03-08T02:05:20.436Z,28.05
2023-03-08T02:07:51.146Z,25.83
2023-03-08T02:10:19.448Z,27.52
2023-03-08T02:12:47.855Z,25.88
2023-03-08T02:15:19.566Z,27.17
2023-03-08T02:17:50.615Z,19.33
2023-03-08T02:20:18.013Z,25.33
2023-03-08T02:22:46.931Z,30.27
2023-03-08T02:25:20.543Z,21.52
2023-03-08T02:27:49.370Z,28.27
2023-03-08T02:30:23.457Z,29.15
2023-03-08T02:32:50.913Z,23.40
2023-03-08T02:35:18.966Z,20.00
2023-03-08T02:37:46.207Z,17.52
2023-03-08T02:40:14.499Z,22.15
2023-03-08T02:42:41.875Z,22.63
2023-03-08T02:45:10.764Z,21.63
2023-03-08T02:47:38.743Z,27.23
2023-03-08T02:50:06.891Z,26.73
2023-03-08T02:52:34.396Z,22.65
2023-03-08T02:55:01.637Z,25.83
2023-03-08T02:57:29.387Z,25.25
2023-03-08T02:59:57.117Z,27.60
2023-03-08T03:02:27.366Z,16.60
2023-03-08T03:04:54.601Z,20.60
2023-03-08T03:07:22.110Z,29.73
2023-03-08T03:09:50.573Z,18.33
2023-03-08T03:12:18.780Z,17.50
2023-03-08T03:14:46.214Z,21.92
2023-03-08T03:17:13.993Z,21.08
2023-03-08T03:19:41.266Z,27.00
2023-03-08T03:22:08.521Z,22.13
2023-03-08T03:24:37.503Z,18.73
2023-03-08T03:27:06.895Z,23.25
2023-03-08T03:29:38.849Z,24.13
2023-03-08T03:32:12.454Z,23.95
2023-03-08T03:34:40.276Z,26.48
2023-03-08T03:37:07.693Z,25.10
2023-03-08T03:39:39.492Z,20.27
2023-03-08T03:42:09.587Z,29.65
2023-03-08T03:44:41.199Z,21.15
2023-03-08T03:47:12.145Z,22.42
2023-03-08T03:49:39.520Z,24.05
2023-03-08T03:52:07.179Z,16.55
2023-03-08T03:54:41.456Z,20.65
2023-03-08T03:57:08.899Z,21.33
2023-03-08T03:59:39.518Z,21.20
2023-03-08T04:02:08.791Z,18.30
2023-03-08T04:04:44.690Z,21.77
2023-03-08T04:07:14.618Z,23.77
2023-03-08T04:09:49.475Z,19.88
2023-03-08T04:12:18.088Z,26.15
2023-03-08T04:14:45.557Z,25.65
2023-03-08T04:17:14.429Z,22.70
2023-03-08T04:22:13.864Z,19.48
2023-03-08T04:24:49.340Z,24.23
2023-03-08T04:27:21.890Z,19.58
2023-03-08T04:29:49.447Z,22.90
2023-03-08T04:32:17.611Z,24.02
2023-03-08T04:34:50.104Z,21.30
2023-03-08T04:37:20.730Z,21.52
2023-03-08T04:39:52.480Z,22.27
2023-03-08T04:42:20.150Z,23.10
2023-03-08T04:44:48.534Z,21.80
2023-03-08T04:49:47.145Z,19.05
2023-03-08T04:52:14.483Z,20.85
2023-03-08T04:54:43.071Z,20.35
2023-03-08T04:57:36.871Z,19.20
2023-03-08T05:00:06.093Z,20.42
2023-03-08T05:02:37.898Z,23.48
2023-03-08T05:05:08.798Z,22.90
2023-03-08T05:07:35.996Z,22.77
2023-03-08T05:10:03.825Z,20.95
2023-03-08T05:12:31.049Z,21.75
2023-03-08T05:15:00.934Z,21.63
2023-03-08T05:17:28.439Z,20.00
2023-03-08T05:19:56.241Z,20.13
2023-03-08T05:22:31.201Z,21.48
2023-03-08T05:24:59.059Z,23.40
2023-03-08T05:27:27.351Z,22.25
2023-03-08T05:29:55.619Z,20.38
2023-03-08T05:32:23.413Z,20.30
2023-03-08T05:34:53.785Z,21.55
2023-03-08T05:37:29.620Z,22.27
2023-03-08T05:40:01.534Z,21.27
2023-03-08T05:42:32.463Z,21.42
2023-03-08T05:45:00.206Z,22.48
2023-03-08T05:47:31.568Z,25.75
2023-03-08T05:49:58.854Z,25.90
2023-03-08T05:52:29.327Z,25.73
2023-03-08T05:54:58.655Z,24.60
2023-03-08T05:57:25.950Z,17.63
2023-03-08T05:59:53.878Z,24.05
2023-03-08T06:02:23.341Z,24.85
2023-03-08T06:04:53.973Z,17.42
2023-03-08T06:07:23.928Z,22.40
2023-03-08T06:09:59.319Z,24.67
2023-03-08T06:12:26.918Z,20.17
2023-03-08T06:14:57.788Z,23.05
2023-03-08T06:17:28.412Z,27.60
2023-03-08T06:19:57.545Z,22.63
2023-03-08T06:22:25.022Z,17.90
2023-03-08T06:24:53.398Z,25.77
2023-03-08T06:27:28.234Z,16.42
2023-03-08T06:29:58.474Z,12.50
2023-03-08T06:32:25.777Z,20.42
2023-03-08T06:34:53.349Z,16.85
2023-03-08T06:37:20.722Z,14.70
2023-03-08T06:39:48.084Z,19.63
2023-03-08T06:42:15.427Z,22.45
2023-03-08T06:44:43.199Z,23.77
2023-03-08T06:47:10.450Z,21.77
2023-03-08T06:49:37.892Z,20.85
2023-03-08T06:52:05.700Z,30.30
2023-03-08T06:54:33.396Z,28.77
2023-03-08T06:57:05.688Z,27.45
2023-03-08T06:59:33.605Z,29.98
2023-03-08T07:02:00.977Z,27.77
2023-03-08T07:04:28.334Z,29.55
2023-03-08T07:06:55.682Z,32.85
2023-03-08T07:09:22.948Z,26.98
2023-03-08T07:11:50.236Z,30.02
2023-03-08T07:14:17.499Z,35.80
2023-03-08T07:16:44.912Z,35.60
2023-03-08T07:19:12.185Z,29.83
2023-03-08T07:21:39.648Z,31.90
2023-03-08T07:24:07.445Z,29.00
2023-03-08T07:26:34.637Z,29.05
2023-03-08T07:29:02.002Z,33.10
2023-03-08T07:31:36.384Z,28.08
2023-03-08T07:34:04.656Z,28.40
2023-03-08T07:36:33.546Z,25.92
2023-03-08T07:39:00.893Z,27.20
2023-03-08T07:41:30.714Z,23.60
2023-03-08T07:43:58.003Z,21.60
2023-03-08T07:46:28.357Z,29.55
2023-03-08T07:48:55.832Z,25.20
2023-03-08T07:51:23.556Z,25.20
2023-03-08T07:53:52.660Z,26.05
2023-03-08T07:56:20.057Z,21.85
2023-03-08T07:58:47.330Z,19.77
2023-03-08T08:01:15.043Z,21.00
2023-03-08T08:03:44.246Z,20.63
2023-03-08T08:06:11.812Z,19.77
2023-03-08T08:08:39.317Z,19.38
2023-03-08T08:11:15.617Z,21.05
2023-03-08T08:13:43.008Z,19.33
2023-03-08T08:16:10.852Z,19.80
2023-03-08T08:18:38.398Z,17.52
2023-03-08T08:21:11.733Z,18.48
2023-03-08T08:23:40.544Z,17.73
2023-03-08T08:26:19.786Z,19.23
2023-03-08T08:28:50.032Z,20.35
2023-03-08T08:31:20.587Z,17.25
2023-03-08T08:33:48.466Z,18.92
2023-03-08T08:36:18.845Z,22.98
2023-03-08T08:38:47.129Z,17.55
2023-03-08T08:41:16.300Z,21.95
2023-03-08T08:43:45.386Z,24.95
2023-03-08T08:46:13.776Z,19.80
2023-03-08T08:48:41.718Z,20.33
2023-03-08T08:51:12.240Z,19.38
2023-03-08T08:53:39.832Z,17.73
2023-03-08T08:56:27.677Z,18.33
2023-03-08T08:59:00.897Z,20.35
2023-03-08T09:01:32.245Z,20.83
2023-03-08T09:03:59.846Z,25.60
2023-03-08T09:06:29.710Z,17.35
2023-03-08T09:08:58.934Z,17.00
2023-03-08T09:11:27.862Z,14.55
2023-03-08T09:13:55.664Z,18.75
2023-03-08T09:16:26.477Z,17.90
2023-03-08T09:18:56.466Z,17.90
2023-03-08T09:21:24.790Z,15.35
2023-03-08T09:23:52.508Z,18.58
2023-03-08T09:26:20.143Z,16.17
2023-03-08T09:28:47.383Z,15.63
2023-03-08T09:31:17.081Z,20.00
2023-03-08T09:33:48.600Z,17.17
2023-03-08T09:36:16.705Z,17.70
2023-03-08T09:38:44.179Z,16.52
2023-03-08T09:41:25.850Z,17.42
2023-03-08T09:46:41.348Z,16.80
2023-03-08T09:49:21.360Z,17.73
2023-03-08T09:51:53.453Z,18.88
2023-03-08T09:54:24.311Z,16.15
2023-03-08T09:56:53.946Z,15.73
2023-03-08T09:59:54.012Z,18.40
2023-03-08T10:03:04.314Z,16.27
2023-03-08T10:05:41.274Z,13.73
2023-03-08T10:08:17.990Z,13.50
2023-03-08T10:10:51.239Z,14.40
2023-03-08T10:13:32.389Z,17.05
2023-03-08T10:16:25.393Z,15.75
2023-03-08T10:19:14.786Z,15.25
2023-03-08T10:21:44.489Z,14.43
2023-03-08T10:24:14.830Z,16.02
2023-03-08T10:26:43.634Z,28.60
2023-03-08T10:29:14.976Z,18.98
2023-03-08T10:31:44.224Z,21.98
2023-03-08T10:34:15.176Z,16.90
2023-03-08T10:37:00.781Z,19.13
2023-03-08T10:39:28.368Z,17.33
2023-03-08T10:41:59.916Z,22.92
2023-03-08T10:47:35.309Z,16.17
2023-03-08T10:50:16.850Z,17.65
2023-03-08T10:52:46.283Z,18.60
2023-03-08T10:55:18.281Z,20.83
2023-03-08T10:58:04.022Z,18.98
2023-03-08T11:00:43.974Z,20.27
2023-03-08T11:03:18.354Z,18.85
2023-03-08T11:06:15.719Z,22.88
2023-03-08T11:08:55.058Z,20.48
2023-03-08T11:11:22.582Z,21.95
2023-03-08T11:13:52.170Z,20.52
2023-03-08T11:16:25.525Z,20.00
2023-03-08T11:19:17.389Z,19.95
2023-03-08T11:24:35.744Z,19.92
2023-03-08T11:27:21.021Z,22.27
2023-03-08T11:30:30.068Z,22.50
2023-03-08T11:33:16.255Z,22.38
2023-03-08T11:36:09.728Z,19.77
2023-03-08T11:38:38.723Z,19.23
2023-03-08T11:41:53.684Z,20.60
2023-03-08T11:44:35.573Z,24.65
2023-03-08T11:47:39.438Z,18.98
2023-03-08T11:50:34.573Z,18.75
2023-03-08T11:53:43.850Z,15.80
2023-03-08T11:56:42.354Z,18.92
2023-03-08T11:59:40.091Z,18.75
2023-03-08T12:02:07.361Z,14.13
2023-03-08T12:04:42.404Z,14.23
2023-03-08T12:07:36.416Z,16.98
2023-03-08T12:10:16.475Z,15.27
2023-03-08T12:13:01.755Z,17.90
2023-03-08T12:15:50.103Z,14.73
2023-03-08T12:18:38.062Z,15.65
2023-03-08T12:21:17.373Z,17.02
2023-03-08T12:23:52.139Z,19.77
2023-03-08T12:26:51.694Z,13.48
2023-03-08T12:29:25.086Z,17.00
2023-03-08T12:31:53.005Z,12.98
2023-03-08T12:34:37.668Z,16.83
2023-03-08T12:37:05.680Z,13.68
2023-03-08T12:39:36.536Z,14.85
2023-03-08T12:42:09.755Z,16.40
2023-03-08T12:44:38.248Z,13.30
2023-03-08T12:47:14.793Z,13.80
2023-03-08T12:49:50.065Z,15.77
2023-03-08T12:52:20.597Z,15.02
2023-03-08T12:55:02.998Z,13.32
2023-03-08T12:57:45.783Z,13.80
2023-03-08T13:00:35.613Z,16.13
2023-03-08T13:03:15.197Z,14.25
2023-03-08T13:05:49.830Z,13.68
2023-03-08T13:08:30.739Z,14.73
2023-03-08T13:11:06.859Z,12.13
2023-03-08T13:13:43.494Z,16.38
2023-03-08T13:16:31.909Z,13.63
2023-03-08T13:19:14.882Z,12.77
2023-03-08T13:21:48.501Z,13.80
2023-03-08T13:24:29.480Z,16.40
2023-03-08T14:31:28.358Z,12.60
2023-03-08T14:34:01.476Z,14.82
2023-03-08T14:36:31.223Z,16.65
2023-03-08T14:39:02.442Z,16.08
2023-03-08T14:41:34.598Z,10.38
2023-03-08T14:44:03.644Z,12.63
2023-03-08T14:46:31.947Z,13.63
2023-03-08T14:49:02.479Z,13.75
2023-03-08T14:51:40.826Z,10.48
2023-03-08T14:54:23.941Z,9.05
2023-03-08T14:56:51.023Z,9.55
2023-03-08T14:59:27.134Z,9.20
2023-03-08T15:01:54.855Z,8.02
2023-03-08T15:04:25.878Z,8.00
2023-03-08T15:06:54.649Z,8.23
2023-03-08T15:09:22.622Z,9.38
2023-03-08T15:11:53.034Z,8.63
2023-03-08T15:14:20.212Z,8.30
2023-03-08T15:16:47.304Z,11.32
2023-03-08T15:19:14.331Z,7.85
2023-03-08T15:21:41.679Z,9.18
2023-03-08T15:24:16.111Z,6.88
2023-03-08T15:26:44.112Z,8.32
2023-03-08T15:29:19.355Z,9.93
2023-03-08T15:31:46.314Z,8.07
2023-03-08T15:34:13.248Z,8.63
2023-03-08T15:36:40.305Z,6.57
2023-03-08T15:39:07.283Z,5.50
2023-03-08T15:41:34.250Z,6.10
2023-03-08T15:44:01.216Z,4.95
2023-03-08T15:46:28.845Z,6.47
2023-03-08T15:48:55.942Z,5.05
2023-03-08T15:51:28.691Z,5.45
2023-03-08T15:53:55.668Z,4.60
2023-03-08T15:56:25.796Z,5.60
2023-03-08T15:58:54.673Z,7.68
2023-03-08T16:01:22.998Z,6.07
2023-03-08T16:03:53.969Z,6.35
2023-03-08T16:06:21.379Z,10.27
2023-03-08T16:08:48.509Z,8.18
2023-03-08T16:11:20.526Z,8.52
2023-03-08T16:13:52.222Z,6.35
2023-03-08T16:18:47.010Z,6.15
2023-03-08T16:21:14.543Z,4.22
2023-03-08T16:23:41.881Z,5.80
2023-03-08T16:26:16.397Z,7.90
2023-03-08T16:28:45.381Z,4.47
2023-03-08T16:31:13.491Z,5.03
2023-03-08T16:33:40.939Z,7.07
2023-03-08T16:36:08.132Z,5.65
2023-03-08T16:38:35.150Z,5.13
2023-03-08T16:41:12.629Z,6.25
2023-03-08T16:45:38.997Z,7.35
2023-03-08T16:46:31.067Z,7.82
2023-03-08T16:48:59.657Z,7.13
2023-03-08T16:51:28.592Z,6.20
2023-03-08T16:53:55.781Z,10.13
2023-03-08T16:56:25.320Z,12.70
2023-03-08T16:58:54.209Z,7.45
2023-03-08T17:01:22.318Z,7.57
2023-03-08T17:03:49.998Z,6.75
2023-03-08T17:06:20.648Z,5.82
2023-03-08T17:08:48.857Z,6.30
2023-03-08T17:11:21.451Z,4.47
2023-03-08T17:13:53.590Z,6.13
2023-03-08T17:16:25.738Z,6.32
2023-03-08T17:18:53.309Z,5.07
2023-03-08T17:21:21.823Z,7.50
2023-03-08T17:23:50.763Z,5.72
2023-03-08T17:26:20.032Z,6.05
2023-03-08T17:28:48.578Z,6.38
2023-03-08T17:31:17.858Z,3.88
2023-03-08T17:33:45.893Z,5.70
2023-03-08T17:36:15.156Z,4.03
2023-03-08T17:38:42.698Z,5.15
2023-03-08T17:41:12.667Z,7.03
2023-03-08T17:43:41.431Z,5.47
2023-03-08T17:46:17.668Z,9.68
2023-03-08T17:48:45.427Z,8.65
2023-03-08T17:51:15.456Z,4.68
2023-03-08T17:53:43.181Z,9.80
2023-03-08T17:56:13.859Z,8.60
2023-03-08T17:58:41.943Z,9.73
2023-03-08T18:01:10.438Z,8.63
2023-03-08T18:03:38.254Z,9.10
2023-03-08T18:06:05.930Z,7.35
2023-03-08T18:08:34.421Z,6.70
2023-03-08T18:11:02.172Z,7.53
2023-03-08T18:13:29.785Z,8.13
2023-03-08T18:15:58.893Z,7.40
2023-03-08T18:18:27.861Z,6.65
2023-03-08T18:21:07.214Z,6.78
2023-03-08T18:23:44.241Z,6.65
2023-03-08T18:26:13.715Z,6.55
2023-03-08T18:28:42.382Z,6.90
2023-03-08T18:31:16.769Z,10.77
2023-03-08T18:33:46.457Z,5.00
2023-03-08T18:36:14.043Z,10.52
2023-03-08T18:38:45.986Z,5.78
2023-03-08T18:41:17.000Z,5.72
2023-03-08T18:43:45.854Z,8.10
2023-03-08T18:46:14.832Z,5.78
2023-03-08T18:48:45.867Z,6.20
2023-03-08T18:51:16.239Z,8.70
2023-03-08T18:53:44.556Z,7.97
2023-03-08T18:56:12.505Z,5.85
2023-03-08T18:58:40.357Z,5.57
2023-03-08T19:01:13.267Z,5.15
2023-03-08T19:03:42.763Z,6.57
2023-03-08T19:06:11.474Z,9.57
2023-03-08T19:08:39.905Z,5.05
2023-03-08T19:11:19.826Z,7.05
2023-03-08T19:13:49.181Z,4.35
2023-03-08T19:16:21.788Z,6.15
2023-03-08T19:18:50.951Z,8.18
2023-03-08T19:21:28.417Z,7.47
2023-03-08T19:23:56.726Z,5.75
2023-03-08T19:26:41.620Z,4.93
2023-03-08T19:29:20.137Z,6.00
2023-03-08T19:31:56.784Z,8.40
2023-03-08T19:34:33.717Z,7.53
2023-03-08T19:37:05.294Z,11.07
2023-03-08T19:39:39.239Z,9.55
2023-03-08T19:42:10.109Z,5.72
2023-03-08T19:44:38.203Z,5.65
2023-03-08T19:47:09.156Z,8.13
2023-03-08T19:49:38.198Z,5.88
2023-03-08T19:52:11.630Z,7.93
2023-03-08T19:54:42.212Z,6.63
2023-03-08T19:57:10.795Z,6.32
2023-03-08T19:59:39.227Z,6.07
2023-03-08T20:02:09.423Z,7.93
2023-03-08T20:04:38.431Z,11.77
2023-03-08T20:07:08.564Z,10.75
2023-03-08T20:09:39.026Z,11.60
2023-03-08T20:12:07.271Z,7.85
2023-03-08T20:14:35.085Z,4.85
2023-03-08T20:17:05.634Z,5.93
2023-03-08T20:19:34.475Z,6.82
2023-03-08T20:22:03.119Z,4.28
2023-03-08T20:24:31.790Z,6.80
2023-03-08T20:27:03.720Z,6.07
2023-03-08T20:29:32.234Z,4.50
2023-03-08T20:32:02.066Z,6.78
2023-03-08T20:34:30.480Z,3.40
2023-03-08T20:36:59.137Z,6.35
2023-03-08T20:39:27.461Z,6.35
2023-03-08T20:41:57.390Z,5.25
2023-03-08T20:44:26.009Z,5.47
2023-03-08T20:46:54.651Z,4.53
2023-03-08T20:49:23.360Z,4.53
2023-03-08T20:51:50.848Z,4.72
2023-03-08T20:54:19.148Z,4.78
2023-03-08T20:56:48.574Z,4.70
2023-03-08T20:59:21.922Z,3.33
2023-03-08T21:01:50.246Z,5.03
2023-03-08T21:04:18.594Z,4.63
2023-03-08T21:06:46.609Z,3.13
2023-03-08T21:09:14.911Z,4.63
2023-03-08T21:11:43.752Z,4.88
2023-03-08T21:14:12.697Z,3.10
2023-03-08T21:16:41.193Z,3.75
2023-03-08T21:19:09.705Z,4.70
2023-03-08T21:21:40.669Z,5.03
2023-03-08T21:24:14.497Z,17.10
2023-03-08T21:26:42.946Z,7.07
2023-03-08T21:29:14.298Z,4.18
2023-03-08T21:31:45.056Z,4.28
2023-03-08T21:34:13.698Z,6.33
2023-03-08T21:36:41.920Z,4.38
2023-03-08T21:39:12.770Z,4.60
2023-03-08T21:41:43.409Z,3.67
2023-03-08T21:44:19.540Z,4.67
2023-03-08T21:46:47.536Z,4.05
2023-03-08T21:49:23.792Z,5.40
2023-03-08T21:51:52.148Z,5.13
2023-03-08T21:54:20.373Z,5.75
2023-03-08T21:56:47.875Z,5.57
2023-03-08T21:59:33.005Z,6.80
2023-03-08T22:02:00.161Z,5.25
2023-03-08T22:04:28.137Z,4.88
2023-03-08T22:06:55.815Z,4.63
2023-03-08T22:09:23.417Z,4.20
2023-03-08T22:11:51.627Z,5.97
2023-03-08T22:14:18.653Z,4.38
2023-03-08T22:16:45.584Z,5.95
2023-03-08T22:19:12.551Z,5.03
2023-03-08T22:21:39.543Z,6.65
2023-03-08T22:24:06.708Z,4.95
2023-03-08T22:26:33.700Z,3.20
2023-03-08T22:29:00.684Z,5.25
2023-03-08T22:31:29.700Z,5.13
2023-03-08T22:33:57.668Z,4.13
2023-03-08T22:36:24.711Z,11.48
2023-03-08T22:38:51.702Z,7.75
2023-03-08T22:41:21.257Z,6.70
2023-03-08T22:43:48.649Z,5.95
2023-03-08T22:46:19.130Z,4.25
2023-03-08T22:48:47.089Z,6.25
2023-03-08T22:51:15.304Z,5.10
2023-03-08T22:53:42.992Z,9.52
2023-03-08T22:56:30.639Z,6.60
2023-03-08T22:58:58.203Z,7.68
2023-03-08T23:01:26.595Z,7.18
2023-03-08T23:03:56.808Z,7.38
2023-03-08T23:06:28.156Z,9.52
2023-03-08T23:09:00.176Z,8.77
2023-03-08T23:11:27.915Z,7.13
2023-03-08T23:13:54.920Z,7.75
2023-03-08T23:16:21.962Z,6.85
2023-03-08T23:18:50.963Z,5.00
2023-03-08T23:21:20.203Z,5.68
2023-03-08T23:23:47.741Z,5.30
2023-03-08T23:26:17.779Z,6.18
2023-03-08T23:28:45.042Z,8.50
2023-03-08T23:31:18.714Z,4.40
2023-03-08T23:33:46.519Z,7.30
2023-03-08T23:36:15.693Z,6.60
2023-03-08T23:38:43.004Z,6.50
2023-03-08T23:41:11.802Z,4.43
2023-03-08T23:43:39.373Z,7.20
2023-03-08T23:46:08.306Z,8.38
2023-03-08T23:48:35.747Z,6.22
2023-03-08T23:51:07.365Z,11.15
2023-03-08T23:53:34.846Z,7.82
2023-03-08T23:56:02.543Z,7.55
2023-03-08T23:58:29.705Z,6.90
